Modesto, CA (95354)

3:30 PM PST on December 17, 2014 (GMT -0800)
Sherwood Forest | Change Station
CLOSE
Current Station
Personal Weather Station
Location: Modesto, CA
Elevation: 95 ft
Nearby Weather Stations

Elev 95 ft 37.69 °N, 120.99 °W | Updated 4 seconds ago

Partly Cloudy
Partly Cloudy
58.7 °F
Feels Like 58.7 °F
N
2.0
Wind Variable Wind from SSE
Gusts 5.0 mph

Today
High -- | Low -- °F
--% Chance of Precip.
Yesterday
High -- | Low -- °F
Precip. -- in
7:13 AM 4:47 PM
Waning Crescent, 19% visible
Pressure 30.04 in
Visibility 10.0 miles
Clouds Few 6500 ft
Dew Point 46 °F
Humidity 63%
Rainfall 0.00 in
Snow Depth Not available.
UV 1 out of 12
Pollen .60 out of 12
Air Quality Not available.
Flu Activity Not available.
METAR KMOD 172253Z 14005KT 10SM FEW065 16/07 A3003 RMK AO2 SLP170 T01560067

More Conditions Fewer Conditions

Pressure 30.04 in
Visibility 10.0 miles
Clouds Few 6500 ft
Dew Point 46 °F
Humidity 63%
Rainfall 0.00 in
Snow Depth Not available.
UV 1 out of 12
Pollen .60 out of 12
Air Quality Not available.
Flu Activity Not available.
METAR KMOD 172253Z 14005KT 10SM FEW065 16/07 A3003 RMK AO2 SLP170 T01560067

More Conditions Fewer Conditions

10-Day Weather Forecast

Almanac

Astronomy

Dec. 17, 2014 Rise Set
Actual Time
Civil Twilight
Nautical Twilight
Astronomical Twilight
Moon
Length of Visible Light
Length of Day
Tomorrow will be .
, % of the Moon is Illuminated

Today's Extremes

State Highs State Lows

Community

WunderPhotos

Upload Photos

1,778,825 photos uploaded!

WunderBlogs® & News

Nearby

Air Quality

  Air Quality AQ Index Pollutant
Not available.

Snow Depth

Station Depth Elevation

Earthquake Activity

City Distance Mag. Time & Date
Minimum magnitude displayed is 2.5.

Coastal Water Temperatures

Place Temperature

Nearby Weather Stations